createdAt,value
2023-03-12T00:00:24.282Z,21.65
2023-03-12T00:02:56.751Z,15.10
2023-03-12T00:05:29.430Z,17.75
2023-03-12T00:08:01.793Z,20.95
2023-03-12T00:10:34.407Z,19.08
2023-03-12T00:13:07.488Z,14.80
2023-03-12T00:15:39.763Z,19.00
2023-03-12T00:18:11.985Z,15.73
2023-03-12T00:20:44.299Z,15.98
2023-03-12T00:23:16.419Z,21.90
2023-03-12T00:25:48.871Z,19.10
2023-03-12T00:28:21.195Z,20.40
2023-03-12T00:30:56.037Z,23.20
2023-03-12T00:33:32.053Z,18.08
2023-03-12T00:36:04.505Z,16.27
2023-03-12T00:38:36.559Z,17.77
2023-03-12T00:41:08.639Z,19.15
2023-03-12T00:43:40.754Z,15.45
2023-03-12T00:46:13.379Z,20.17
2023-03-12T00:48:45.895Z,20.67
2023-03-12T00:51:18.113Z,17.67
2023-03-12T00:53:50.352Z,16.60
2023-03-12T00:56:22.399Z,16.23
2023-03-12T00:58:54.592Z,15.70
2023-03-12T01:01:27.793Z,18.08
2023-03-12T01:04:00.037Z,14.40
2023-03-12T01:06:32.913Z,13.57
2023-03-12T01:09:06.818Z,13.93
2023-03-12T01:11:39.134Z,13.35
2023-03-12T01:14:11.590Z,13.40
2023-03-12T01:16:43.885Z,16.45
2023-03-12T01:19:18.353Z,12.68
2023-03-12T01:21:50.525Z,11.47
2023-03-12T01:24:22.686Z,13.85
2023-03-12T01:26:54.952Z,16.48
2023-03-12T01:29:27.149Z,10.48
2023-03-12T01:31:59.615Z,13.25
2023-03-12T01:34:33.579Z,9.95
2023-03-12T01:37:07.359Z,16.73
2023-03-12T01:39:40.574Z,15.85
2023-03-12T01:42:13.358Z,17.27
2023-03-12T01:45:00.599Z,11.70
2023-03-12T01:47:35.702Z,11.57
2023-03-12T01:50:12.970Z,13.48
2023-03-12T01:52:45.277Z,14.68
2023-03-12T01:55:18.150Z,16.83
2023-03-12T01:57:57.089Z,13.00
2023-03-12T02:00:29.717Z,12.80
2023-03-12T02:03:08.965Z,13.15
2023-03-12T02:05:48.470Z,12.30
2023-03-12T02:08:23.378Z,12.02
2023-03-12T02:10:55.591Z,16.35
2023-03-12T02:13:28.233Z,12.50
2023-03-12T02:16:00.996Z,10.37
2023-03-12T02:18:35.623Z,10.57
2023-03-12T02:21:15.039Z,9.32
2023-03-12T02:24:13.000Z,13.20
2023-03-12T02:26:46.214Z,8.18
2023-03-12T02:29:18.959Z,13.60
2023-03-12T02:31:55.108Z,9.67
2023-03-12T02:34:27.606Z,9.18
2023-03-12T02:36:59.673Z,9.77
2023-03-12T02:39:31.946Z,13.00
2023-03-12T02:42:04.141Z,16.45
2023-03-12T02:44:38.050Z,9.90
2023-03-12T02:47:10.320Z,13.95
2023-03-12T02:49:42.719Z,16.08
2023-03-12T02:52:15.152Z,13.80
2023-03-12T02:54:47.820Z,12.10
2023-03-12T02:57:20.156Z,15.48
2023-03-12T02:59:52.614Z,11.73
2023-03-12T03:02:25.530Z,12.52
2023-03-12T03:04:57.903Z,14.32
2023-03-12T03:07:29.958Z,12.32
2023-03-12T03:10:04.539Z,10.40
2023-03-12T03:12:37.973Z,14.15
2023-03-12T03:17:44.587Z,14.77
2023-03-12T03:20:16.993Z,10.77
2023-03-12T03:22:49.073Z,12.30
2023-03-12T03:25:23.650Z,14.23
2023-03-12T03:27:56.440Z,9.88
2023-03-12T03:30:28.695Z,14.02
2023-03-12T03:33:01.297Z,9.82
2023-03-12T03:35:36.838Z,10.63
2023-03-12T03:38:09.017Z,11.43
2023-03-12T03:40:45.749Z,11.45
2023-03-12T03:43:17.968Z,9.48
2023-03-12T03:46:00.041Z,11.32
2023-03-12T03:48:33.018Z,12.02
2023-03-12T03:51:07.094Z,11.98
2023-03-12T03:53:41.362Z,20.08
2023-03-12T03:56:16.104Z,9.45
2023-03-12T03:58:53.947Z,8.80
2023-03-12T04:01:27.742Z,10.20
2023-03-12T04:04:01.554Z,9.13
2023-03-12T04:06:35.529Z,11.63
2023-03-12T04:09:07.727Z,9.88
2023-03-12T04:11:41.647Z,10.38
2023-03-12T04:14:15.611Z,14.05
2023-03-12T04:16:49.982Z,9.38
2023-03-12T04:19:22.028Z,12.68
2023-03-12T04:21:54.439Z,9.75
2023-03-12T04:24:26.523Z,13.32
2023-03-12T04:26:59.593Z,9.93
2023-03-12T04:29:32.150Z,11.60
2023-03-12T04:32:05.392Z,12.80
2023-03-12T04:34:37.491Z,10.85
2023-03-12T04:37:13.894Z,11.15
2023-03-12T04:39:46.387Z,11.32
2023-03-12T04:44:53.134Z,13.45
2023-03-12T04:47:25.606Z,17.50
2023-03-12T04:49:57.856Z,18.42
2023-03-12T04:52:30.569Z,20.97
2023-03-12T04:55:02.685Z,16.60
2023-03-12T04:57:35.117Z,17.30
2023-03-12T05:00:13.080Z,16.10
2023-03-12T05:02:45.577Z,13.73
2023-03-12T05:05:18.144Z,19.80
2023-03-12T05:07:50.456Z,16.65
2023-03-12T05:10:22.948Z,17.13
2023-03-12T05:12:57.050Z,15.45
2023-03-12T05:15:30.235Z,16.95
2023-03-12T05:18:03.127Z,16.53
2023-03-12T05:20:35.758Z,16.38
2023-03-12T05:23:08.134Z,22.60
2023-03-12T05:25:41.392Z,23.30
2023-03-12T05:30:46.963Z,17.48
2023-03-12T05:33:19.401Z,20.52
2023-03-12T05:35:51.679Z,18.42
2023-03-12T05:38:23.767Z,18.30
2023-03-12T05:41:01.855Z,21.00
2023-03-12T05:43:37.212Z,21.20
2023-03-12T05:46:10.202Z,17.90
2023-03-12T05:48:43.007Z,26.52
2023-03-12T05:51:15.440Z,18.48
2023-03-12T05:53:47.615Z,19.83
2023-03-12T05:56:20.203Z,18.25
2023-03-12T05:58:53.204Z,18.17
2023-03-12T06:01:29.647Z,20.15
2023-03-12T06:04:03.954Z,21.25
2023-03-12T06:06:37.125Z,22.83
2023-03-12T06:09:10.084Z,23.60
2023-03-12T06:11:42.305Z,18.27
2023-03-12T06:14:14.897Z,19.48
2023-03-12T06:16:47.560Z,18.10
2023-03-12T06:19:19.887Z,19.00
2023-03-12T06:21:54.416Z,17.90
2023-03-12T06:24:26.577Z,19.98
2023-03-12T06:27:02.540Z,19.42
2023-03-12T06:29:34.768Z,18.05
2023-03-12T06:32:07.290Z,19.63
2023-03-12T06:34:39.377Z,18.95
2023-03-12T06:37:12.129Z,18.83
2023-03-12T06:39:44.150Z,18.47
2023-03-12T06:42:17.825Z,17.88
2023-03-12T06:44:50.450Z,16.95
2023-03-12T06:47:22.796Z,17.77
2023-03-12T06:49:54.855Z,12.75
2023-03-12T06:52:27.602Z,12.30
2023-03-12T06:54:59.799Z,10.83
2023-03-12T06:57:32.020Z,21.95
2023-03-12T07:00:05.408Z,9.95
2023-03-12T07:02:37.569Z,12.07
2023-03-12T07:05:10.506Z,9.35
2023-03-12T07:07:42.538Z,9.70
2023-03-12T07:10:14.618Z,9.25
2023-03-12T07:12:46.689Z,8.68
2023-03-12T07:15:19.176Z,10.35
2023-03-12T07:17:51.275Z,9.27
2023-03-12T07:20:23.433Z,9.73
2023-03-12T07:22:55.623Z,13.52
2023-03-12T07:25:28.217Z,9.85
2023-03-12T07:28:00.225Z,8.27
2023-03-12T07:30:33.870Z,6.20
2023-03-12T07:33:09.273Z,15.98
2023-03-12T07:35:41.822Z,10.60
2023-03-12T07:38:14.819Z,9.52
2023-03-12T07:40:55.121Z,9.95
2023-03-12T07:43:27.473Z,6.70
2023-03-12T07:46:00.356Z,7.70
2023-03-12T07:48:32.634Z,9.07
2023-03-12T07:51:05.085Z,9.55
2023-03-12T07:53:37.175Z,10.05
2023-03-12T07:56:09.905Z,14.65
2023-03-12T07:58:42.167Z,13.60
2023-03-12T08:01:14.362Z,12.23
2023-03-12T08:03:46.528Z,6.60
2023-03-12T08:06:18.780Z,13.55
2023-03-12T08:08:51.153Z,8.27
2023-03-12T08:11:23.451Z,6.88
2023-03-12T08:13:55.941Z,6.80
2023-03-12T08:16:28.089Z,9.07
2023-03-12T08:19:00.266Z,6.18
2023-03-12T08:21:32.361Z,7.80
2023-03-12T08:24:04.964Z,11.13
2023-03-12T08:26:37.057Z,9.05
2023-03-12T08:29:09.533Z,9.50
2023-03-12T08:31:53.694Z,7.63
2023-03-12T08:34:35.153Z,11.10
2023-03-12T08:37:07.266Z,10.02
2023-03-12T08:39:39.427Z,10.07
2023-03-12T08:42:11.564Z,10.32
2023-03-12T08:44:43.997Z,8.55
2023-03-12T08:47:16.485Z,9.00
2023-03-12T08:49:49.195Z,9.45
2023-03-12T08:52:21.187Z,8.13
2023-03-12T08:54:53.870Z,7.50
2023-03-12T08:57:26.117Z,8.07
2023-03-12T08:59:58.753Z,12.93
2023-03-12T09:02:30.928Z,7.90
2023-03-12T09:05:05.749Z,11.57
2023-03-12T09:07:38.527Z,20.35
2023-03-12T09:10:11.448Z,8.65
2023-03-12T09:12:44.959Z,8.63
2023-03-12T09:17:51.189Z,19.65
2023-03-12T09:20:24.610Z,8.43
2023-03-12T09:22:56.743Z,6.75
2023-03-12T09:25:29.219Z,8.00
2023-03-12T09:28:02.838Z,9.85
2023-03-12T09:33:07.417Z,10.70
2023-03-12T09:35:39.566Z,9.95
2023-03-12T09:38:15.734Z,12.20
2023-03-12T09:40:48.583Z,9.07
2023-03-12T09:43:34.379Z,12.68
2023-03-12T09:46:13.877Z,14.70
2023-03-12T09:48:47.677Z,11.30
2023-03-12T09:54:13.454Z,9.35
2023-03-12T09:56:46.066Z,12.65
2023-03-12T09:59:18.901Z,13.27
2023-03-12T10:01:55.146Z,8.23
2023-03-12T10:04:52.309Z,8.68
2023-03-12T10:07:39.838Z,9.48
2023-03-12T10:10:33.374Z,13.43
2023-03-12T10:13:20.414Z,11.10
2023-03-12T10:16:25.793Z,11.15
2023-03-12T10:19:11.609Z,9.85
2023-03-12T10:22:02.331Z,14.68
2023-03-12T10:24:52.699Z,10.05
2023-03-12T10:27:29.944Z,12.55
2023-03-12T10:30:14.259Z,10.13
2023-03-12T10:32:50.840Z,8.55
2023-03-12T10:35:25.281Z,10.07
2023-03-12T10:38:00.496Z,9.50
2023-03-12T10:40:35.972Z,7.68
2023-03-12T10:43:09.920Z,7.50
2023-03-12T10:46:10.840Z,7.53
2023-03-12T10:48:43.555Z,7.13
2023-03-12T10:51:15.701Z,10.30
2023-03-12T10:53:48.272Z,7.85
2023-03-12T10:56:21.272Z,7.60
2023-03-12T10:58:54.350Z,7.60
2023-03-12T11:01:29.351Z,10.18
2023-03-12T11:04:18.325Z,9.25
2023-03-12T11:07:27.844Z,6.72
2023-03-12T11:10:09.257Z,7.10
2023-03-12T11:12:56.192Z,7.35
2023-03-12T11:15:32.601Z,10.20
2023-03-12T11:18:27.606Z,9.40
2023-03-12T11:21:15.369Z,9.80
2023-03-12T11:24:08.633Z,7.65
2023-03-12T11:26:57.667Z,8.07
2023-03-12T11:29:40.073Z,10.63
2023-03-12T11:32:36.369Z,11.82
2023-03-12T11:35:13.396Z,14.85
2023-03-12T11:37:45.437Z,8.80
2023-03-12T11:40:17.437Z,13.70
2023-03-12T11:43:12.380Z,13.52
2023-03-12T11:46:04.651Z,10.15
2023-03-12T11:48:45.881Z,7.97
2023-03-12T11:51:39.154Z,9.60
2023-03-12T11:54:30.345Z,5.78
2023-03-12T11:57:14.673Z,7.13
2023-03-12T11:59:54.609Z,11.15
2023-03-12T12:02:55.245Z,6.70
2023-03-12T12:05:38.987Z,8.38
2023-03-12T12:10:55.532Z,12.85
2023-03-12T12:13:46.258Z,7.13
2023-03-12T12:16:29.174Z,10.32
2023-03-12T12:19:29.951Z,9.05
2023-03-12T12:22:26.664Z,6.47
2023-03-12T12:25:15.544Z,8.13
2023-03-12T12:28:12.175Z,8.48
2023-03-12T12:31:17.032Z,9.50
2023-03-12T12:33:58.509Z,8.95
2023-03-12T12:36:35.204Z,7.18
2023-03-12T12:39:13.467Z,7.50
2023-03-12T12:41:54.533Z,8.98
2023-03-12T12:44:43.809Z,9.40
2023-03-12T12:47:22.908Z,7.20
2023-03-12T12:49:58.301Z,11.13
2023-03-12T12:52:30.700Z,15.25
2023-03-12T12:55:30.940Z,12.98
2023-03-12T12:58:23.561Z,10.02
2023-03-12T13:01:02.034Z,10.10
2023-03-12T13:03:34.609Z,16.52
2023-03-12T13:06:07.700Z,11.45
2023-03-12T13:08:45.833Z,10.80
2023-03-12T13:11:20.604Z,13.00
2023-03-12T13:14:05.043Z,9.57
2023-03-12T13:16:39.679Z,14.77
2023-03-12T13:19:15.028Z,13.77
2023-03-12T13:21:56.874Z,13.85
2023-03-12T13:24:57.880Z,15.90
2023-03-12T13:27:36.455Z,10.85
2023-03-12T13:30:33.745Z,11.48
2023-03-12T13:33:11.805Z,9.73
2023-03-12T13:36:02.121Z,15.13
2023-03-12T13:38:37.401Z,14.93
2023-03-12T13:41:09.706Z,11.90
2023-03-12T13:43:49.727Z,9.15
2023-03-12T13:46:30.116Z,9.15
2023-03-12T13:49:09.899Z,10.10
2023-03-12T13:52:02.680Z,9.30
2023-03-12T13:54:35.726Z,8.10
2023-03-12T13:57:21.910Z,8.40
2023-03-12T13:59:56.568Z,10.75
2023-03-12T14:02:33.852Z,10.15
2023-03-12T14:05:10.802Z,7.15
2023-03-12T14:08:01.201Z,6.97
2023-03-12T14:10:53.768Z,6.60
2023-03-12T14:13:39.882Z,9.98
2023-03-12T14:16:46.126Z,7.82
2023-03-12T14:19:22.832Z,9.50
2023-03-12T14:21:59.895Z,9.35
2023-03-12T14:24:39.814Z,11.23
2023-03-12T14:27:17.798Z,7.38
2023-03-12T14:30:13.549Z,9.02
2023-03-12T14:32:48.394Z,11.57
2023-03-12T14:35:40.676Z,7.25
2023-03-12T14:38:28.304Z,10.13
2023-03-12T14:41:05.256Z,11.35
2023-03-12T14:43:37.610Z,7.50
2023-03-12T14:46:22.681Z,8.98
2023-03-12T14:48:55.260Z,5.05
2023-03-12T14:51:31.049Z,9.15
2023-03-12T14:54:03.876Z,12.80
2023-03-12T14:56:36.209Z,6.18
2023-03-12T14:59:25.318Z,9.75
2023-03-12T15:02:25.289Z,5.93
2023-03-12T15:05:00.517Z,7.90
2023-03-12T15:07:39.760Z,13.30
2023-03-12T15:10:25.833Z,3.97
2023-03-12T15:13:01.539Z,8.88
2023-03-12T15:15:40.280Z,5.40
2023-03-12T15:18:19.366Z,6.35
2023-03-12T15:20:54.086Z,7.22
2023-03-12T15:23:28.048Z,2.35
2023-03-12T15:26:28.977Z,5.57
2023-03-12T15:29:04.165Z,1.70
2023-03-12T15:31:47.904Z,4.68
2023-03-12T15:34:35.759Z,3.20
2023-03-12T15:37:38.217Z,3.40
2023-03-12T15:40:22.133Z,2.33
2023-03-12T15:42:57.730Z,4.47
2023-03-12T15:45:40.543Z,1.27
2023-03-12T15:48:19.159Z,2.28
2023-03-12T15:50:51.498Z,2.08
2023-03-12T15:53:28.968Z,2.50
2023-03-12T15:56:05.264Z,2.60
2023-03-12T15:58:40.497Z,2.97
2023-03-12T16:01:28.131Z,2.38
2023-03-12T16:04:00.342Z,3.33
2023-03-12T16:06:32.464Z,3.53
2023-03-12T16:09:05.057Z,4.20
2023-03-12T16:11:37.482Z,3.40
2023-03-12T16:14:33.051Z,3.97
2023-03-12T16:17:06.181Z,4.68
2023-03-12T16:19:38.721Z,3.05
2023-03-12T16:22:10.927Z,3.83
2023-03-12T16:24:43.273Z,3.13
2023-03-12T16:27:23.667Z,2.20
2023-03-12T16:30:13.269Z,4.15
2023-03-12T16:32:45.867Z,4.47
2023-03-12T16:35:20.164Z,2.73
2023-03-12T16:37:52.572Z,3.38
2023-03-12T16:40:33.468Z,3.15
2023-03-12T16:43:11.724Z,3.33
2023-03-12T16:45:47.300Z,4.35
2023-03-12T16:48:24.412Z,6.97
2023-03-12T16:50:59.083Z,8.02
2023-03-12T16:53:37.678Z,5.40
2023-03-12T16:56:18.224Z,4.85
2023-03-12T16:58:51.350Z,3.78
2023-03-12T17:01:26.859Z,8.95
2023-03-12T17:03:59.168Z,10.23
2023-03-12T17:06:31.343Z,5.43
2023-03-12T17:09:03.630Z,2.95
2023-03-12T17:11:38.073Z,5.50
2023-03-12T17:14:20.120Z,8.35
2023-03-12T17:16:52.735Z,5.65
2023-03-12T17:19:24.969Z,3.47
2023-03-12T17:21:57.646Z,7.65
2023-03-12T17:24:29.841Z,5.80
2023-03-12T17:27:02.091Z,4.88
2023-03-12T17:29:34.127Z,3.83
2023-03-12T17:32:07.383Z,5.20
2023-03-12T17:37:11.972Z,7.32
2023-03-12T17:39:44.053Z,6.00
2023-03-12T17:42:16.580Z,7.47
2023-03-12T17:44:49.165Z,10.00
2023-03-12T17:47:21.480Z,4.32
2023-03-12T17:49:53.568Z,6.80
2023-03-12T17:52:25.852Z,7.28
2023-03-12T17:54:58.389Z,7.70
2023-03-12T17:57:30.520Z,7.32
2023-03-12T18:00:04.245Z,6.63
2023-03-12T18:02:44.467Z,6.32
2023-03-12T18:05:17.157Z,5.25
2023-03-12T18:07:50.703Z,7.43
2023-03-12T18:10:22.872Z,11.15
2023-03-12T18:12:54.934Z,7.65
2023-03-12T18:15:26.988Z,10.35
2023-03-12T18:17:59.789Z,8.45
2023-03-12T18:20:39.206Z,8.27
2023-03-12T18:23:12.156Z,8.77
2023-03-12T18:25:46.127Z,9.15
2023-03-12T18:28:18.168Z,8.68
2023-03-12T18:30:50.587Z,10.80
2023-03-12T18:33:22.910Z,8.65
2023-03-12T18:35:55.319Z,11.23
2023-03-12T18:38:28.758Z,8.15
2023-03-12T18:41:10.983Z,9.88
2023-03-12T18:43:43.349Z,10.18
2023-03-12T18:46:16.052Z,7.97
2023-03-12T18:48:48.330Z,6.47
2023-03-12T18:51:20.672Z,7.78
2023-03-12T18:53:52.850Z,8.05
2023-03-12T18:56:25.116Z,7.60
2023-03-12T18:58:57.190Z,5.40
2023-03-12T19:01:29.455Z,6.40
2023-03-12T19:04:01.562Z,5.85
2023-03-12T19:06:49.528Z,5.05
2023-03-12T19:09:22.594Z,5.72
2023-03-12T19:11:54.900Z,7.80
2023-03-12T19:14:27.492Z,3.72
2023-03-12T19:16:59.568Z,10.65
2023-03-12T19:19:31.544Z,7.03
2023-03-12T19:22:04.918Z,5.07
2023-03-12T19:27:10.179Z,7.40
2023-03-12T19:29:42.607Z,5.97
2023-03-12T19:32:14.980Z,7.10
2023-03-12T19:34:51.756Z,8.35
2023-03-12T19:37:24.469Z,10.02
2023-03-12T19:39:56.932Z,12.27
2023-03-12T19:42:29.257Z,17.73
2023-03-12T19:45:01.570Z,29.15
2023-03-12T19:47:34.031Z,16.45
2023-03-12T19:50:07.458Z,22.33
2023-03-12T19:52:39.794Z,12.10
2023-03-12T19:55:12.601Z,13.02
2023-03-12T19:57:44.769Z,16.50
2023-03-12T20:00:17.417Z,10.88
2023-03-12T20:02:50.092Z,14.17
2023-03-12T20:05:22.506Z,16.40
2023-03-12T20:07:54.700Z,16.05
2023-03-12T20:10:29.051Z,14.60
2023-03-12T20:13:01.063Z,7.57
2023-03-12T20:15:33.282Z,9.52
2023-03-12T20:18:05.893Z,10.90
2023-03-12T20:20:38.043Z,12.32
2023-03-12T20:23:10.181Z,10.27
2023-03-12T20:25:42.863Z,9.32
2023-03-12T20:28:15.063Z,14.20
2023-03-12T20:30:51.727Z,13.88
2023-03-12T20:33:23.769Z,9.77
2023-03-12T20:35:56.257Z,13.25
2023-03-12T20:38:28.464Z,11.32
2023-03-12T20:41:00.581Z,11.85
2023-03-12T20:43:34.521Z,14.50
2023-03-12T20:46:06.850Z,13.32
2023-03-12T20:48:39.265Z,9.68
2023-03-12T20:51:11.309Z,12.18
2023-03-12T20:53:44.714Z,14.30
2023-03-12T20:56:16.887Z,17.15
2023-03-12T20:58:48.973Z,8.85
2023-03-12T21:01:21.377Z,5.30
2023-03-12T21:03:59.444Z,11.07
2023-03-12T21:06:32.162Z,9.00
2023-03-12T21:09:04.629Z,8.15
2023-03-12T21:11:39.033Z,8.10
2023-03-12T21:14:11.044Z,9.77
2023-03-12T21:16:43.159Z,12.82
2023-03-12T21:19:15.259Z,14.35
2023-03-12T21:21:47.400Z,12.57
2023-03-12T21:24:19.878Z,8.85
2023-03-12T21:26:51.949Z,8.10
2023-03-12T21:29:24.398Z,8.35
2023-03-12T21:31:57.520Z,7.45
2023-03-12T21:34:30.657Z,9.27
2023-03-12T21:37:02.757Z,5.07
2023-03-12T21:39:35.395Z,10.65
2023-03-12T21:42:07.549Z,7.07
2023-03-12T21:44:40.062Z,12.50
2023-03-12T21:47:12.426Z,8.88
2023-03-12T21:49:45.117Z,9.63
2023-03-12T21:52:17.300Z,9.65
2023-03-12T21:54:49.788Z,10.20
2023-03-12T21:57:21.945Z,9.73
2023-03-12T21:59:54.556Z,8.98
2023-03-12T22:02:28.094Z,10.23
2023-03-12T22:05:01.283Z,10.00
2023-03-12T22:07:33.379Z,9.48
2023-03-12T22:10:07.377Z,8.32
2023-03-12T22:12:40.184Z,13.20
2023-03-12T22:15:12.541Z,9.70
2023-03-12T22:17:44.597Z,9.88
2023-03-12T22:20:17.043Z,7.55
2023-03-12T22:22:49.152Z,9.27
2023-03-12T22:25:21.316Z,9.43
2023-03-12T22:27:53.423Z,10.40
2023-03-12T22:30:25.490Z,8.18
2023-03-12T22:32:57.937Z,7.03
2023-03-12T22:35:30.081Z,5.53
2023-03-12T22:38:02.046Z,5.15
2023-03-12T22:40:34.312Z,5.18
2023-03-12T22:43:06.883Z,5.15
2023-03-12T22:45:39.269Z,5.25
2023-03-12T22:48:11.660Z,5.97
2023-03-12T22:50:43.697Z,5.50
2023-03-12T22:53:24.569Z,6.90
2023-03-12T22:56:01.824Z,3.75
2023-03-12T22:58:34.335Z,5.38
2023-03-12T23:01:14.255Z,3.97
2023-03-12T23:03:47.490Z,6.07
2023-03-12T23:06:26.049Z,4.88
2023-03-12T23:08:58.965Z,3.35
2023-03-12T23:11:31.229Z,3.85
2023-03-12T23:14:03.621Z,6.47
2023-03-12T23:16:35.863Z,3.95
2023-03-12T23:19:07.878Z,6.50
2023-03-12T23:21:42.185Z,2.58
2023-03-12T23:24:14.536Z,4.05
2023-03-12T23:26:46.964Z,10.98
2023-03-12T23:29:19.109Z,3.97
2023-03-12T23:31:51.138Z,5.72
2023-03-12T23:34:23.244Z,4.78
2023-03-12T23:36:55.312Z,3.35
2023-03-12T23:39:30.470Z,3.38
2023-03-12T23:42:02.583Z,3.17
2023-03-12T23:44:34.647Z,3.42
2023-03-12T23:47:06.830Z,2.38
2023-03-12T23:49:38.781Z,3.00
2023-03-12T23:52:11.090Z,5.90
2023-03-12T23:54:43.276Z,3.08
2023-03-12T23:57:15.257Z,2.60
2023-03-12T23:59:47.293Z,4.28
